sensor_id;sensor_type;location;lat;lon;timestamp;P1;durP1;ratioP1;P2;durP2;ratioP2
33836;SDS011;20140;49.356;8.812;2022-09-17T00:01:03;2.63;;;0.80;;
33836;SDS011;20140;49.356;8.812;2022-09-17T00:03:29;2.10;;;0.60;;
33836;SDS011;20140;49.356;8.812;2022-09-17T00:05:59;1.38;;;0.70;;
33836;SDS011;20140;49.356;8.812;2022-09-17T00:08:27;0.85;;;0.52;;
33836;SDS011;20140;49.356;8.812;2022-09-17T00:10:53;0.83;;;0.60;;
33836;SDS011;20140;49.356;8.812;2022-09-17T00:13:18;0.83;;;0.50;;
33836;SDS011;20140;49.356;8.812;2022-09-17T00:15:45;0.82;;;0.60;;
33836;SDS011;20140;49.356;8.812;2022-09-17T00:18:12;1.73;;;0.60;;
33836;SDS011;20140;49.356;8.812;2022-09-17T00:20:38;0.77;;;0.77;;
33836;SDS011;20140;49.356;8.812;2022-09-17T00:23:05;1.42;;;0.60;;
33836;SDS011;20140;49.356;8.812;2022-09-17T00:25:32;5.43;;;0.68;;
33836;SDS011;20140;49.356;8.812;2022-09-17T00:27:57;0.80;;;0.60;;
33836;SDS011;20140;49.356;8.812;2022-09-17T00:30:23;1.13;;;0.73;;
33836;SDS011;20140;49.356;8.812;2022-09-17T00:32:48;1.17;;;0.70;;
33836;SDS011;20140;49.356;8.812;2022-09-17T00:35:14;1.27;;;0.80;;
33836;SDS011;20140;49.356;8.812;2022-09-17T00:37:40;3.35;;;0.90;;
33836;SDS011;20140;49.356;8.812;2022-09-17T00:40:05;2.15;;;0.88;;
33836;SDS011;20140;49.356;8.812;2022-09-17T00:42:32;1.70;;;0.63;;
33836;SDS011;20140;49.356;8.812;2022-09-17T00:44:57;1.00;;;0.70;;
33836;SDS011;20140;49.356;8.812;2022-09-17T00:47:30;2.63;;;0.75;;
33836;SDS011;20140;49.356;8.812;2022-09-17T00:50:05;3.13;;;0.70;;
33836;SDS011;20140;49.356;8.812;2022-09-17T00:52:42;2.42;;;0.88;;
33836;SDS011;20140;49.356;8.812;2022-09-17T00:55:18;1.55;;;1.20;;
33836;SDS011;20140;49.356;8.812;2022-09-17T00:57:45;1.70;;;0.60;;
33836;SDS011;20140;49.356;8.812;2022-09-17T01:00:13;3.23;;;1.20;;
33836;SDS011;20140;49.356;8.812;2022-09-17T01:02:40;1.90;;;0.87;;
33836;SDS011;20140;49.356;8.812;2022-09-17T01:05:07;2.40;;;0.80;;
33836;SDS011;20140;49.356;8.812;2022-09-17T01:07:37;2.30;;;0.70;;
33836;SDS011;20140;49.356;8.812;2022-09-17T01:10:25;2.25;;;1.13;;
33836;SDS011;20140;49.356;8.812;2022-09-17T01:26:59;2.28;;;0.77;;
33836;SDS011;20140;49.356;8.812;2022-09-17T01:35:32;2.33;;;0.90;;
33836;SDS011;20140;49.356;8.812;2022-09-17T01:38:01;7.70;;;1.23;;
33836;SDS011;20140;49.356;8.812;2022-09-17T01:40:37;2.30;;;0.75;;
33836;SDS011;20140;49.356;8.812;2022-09-17T01:43:21;0.93;;;0.80;;
33836;SDS011;20140;49.356;8.812;2022-09-17T01:45:57;2.85;;;1.27;;
33836;SDS011;20140;49.356;8.812;2022-09-17T01:48:47;4.97;;;1.23;;
33836;SDS011;20140;49.356;8.812;2022-09-17T01:51:21;2.93;;;1.00;;
33836;SDS011;20140;49.356;8.812;2022-09-17T01:53:52;2.00;;;0.98;;
33836;SDS011;20140;49.356;8.812;2022-09-17T01:56:27;1.88;;;0.95;;
33836;SDS011;20140;49.356;8.812;2022-09-17T01:59:04;3.97;;;1.15;;
33836;SDS011;20140;49.356;8.812;2022-09-17T02:01:38;3.97;;;1.05;;
33836;SDS011;20140;49.356;8.812;2022-09-17T02:04:08;4.27;;;1.20;;
33836;SDS011;20140;49.356;8.812;2022-09-17T02:06:42;1.58;;;0.82;;
33836;SDS011;20140;49.356;8.812;2022-09-17T02:09:21;1.45;;;0.82;;
33836;SDS011;20140;49.356;8.812;2022-09-17T02:11:53;3.92;;;1.50;;
33836;SDS011;20140;49.356;8.812;2022-09-17T02:14:34;2.97;;;0.90;;
33836;SDS011;20140;49.356;8.812;2022-09-17T02:17:09;2.00;;;0.90;;
33836;SDS011;20140;49.356;8.812;2022-09-17T02:19:48;2.30;;;1.00;;
33836;SDS011;20140;49.356;8.812;2022-09-17T02:22:15;1.97;;;1.10;;
33836;SDS011;20140;49.356;8.812;2022-09-17T02:30:18;2.15;;;0.70;;
33836;SDS011;20140;49.356;8.812;2022-09-17T02:32:44;4.90;;;1.10;;
33836;SDS011;20140;49.356;8.812;2022-09-17T02:35:10;2.30;;;0.93;;
33836;SDS011;20140;49.356;8.812;2022-09-17T02:37:38;2.13;;;0.82;;
33836;SDS011;20140;49.356;8.812;2022-09-17T02:40:08;3.10;;;1.20;;
33836;SDS011;20140;49.356;8.812;2022-09-17T02:53:34;1.60;;;1.20;;
33836;SDS011;20140;49.356;8.812;2022-09-17T02:58:42;3.83;;;1.33;;
33836;SDS011;20140;49.356;8.812;2022-09-17T03:01:18;2.50;;;1.00;;
33836;SDS011;20140;49.356;8.812;2022-09-17T03:03:52;4.78;;;1.50;;
33836;SDS011;20140;49.356;8.812;2022-09-17T03:06:20;1.67;;;1.20;;
33836;SDS011;20140;49.356;8.812;2022-09-17T03:08:47;3.10;;;1.00;;
33836;SDS011;20140;49.356;8.812;2022-09-17T03:11:12;2.83;;;1.20;;
33836;SDS011;20140;49.356;8.812;2022-09-17T03:13:38;3.72;;;1.50;;
33836;SDS011;20140;49.356;8.812;2022-09-17T03:16:05;2.50;;;1.13;;
33836;SDS011;20140;49.356;8.812;2022-09-17T03:18:31;4.47;;;1.10;;
33836;SDS011;20140;49.356;8.812;2022-09-17T03:20:57;3.83;;;2.10;;
33836;SDS011;20140;49.356;8.812;2022-09-17T03:23:22;2.97;;;1.30;;
33836;SDS011;20140;49.356;8.812;2022-09-17T03:25:48;3.38;;;1.38;;
33836;SDS011;20140;49.356;8.812;2022-09-17T03:28:15;3.10;;;1.60;;
33836;SDS011;20140;49.356;8.812;2022-09-17T03:30:42;4.35;;;1.13;;
33836;SDS011;20140;49.356;8.812;2022-09-17T03:33:08;3.30;;;1.95;;
33836;SDS011;20140;49.356;8.812;2022-09-17T03:35:33;1.30;;;1.00;;
33836;SDS011;20140;49.356;8.812;2022-09-17T03:37:59;3.70;;;1.10;;
33836;SDS011;20140;49.356;8.812;2022-09-17T03:40:24;3.50;;;1.30;;
33836;SDS011;20140;49.356;8.812;2022-09-17T03:42:50;4.67;;;1.37;;
33836;SDS011;20140;49.356;8.812;2022-09-17T03:45:16;4.35;;;1.15;;
33836;SDS011;20140;49.356;8.812;2022-09-17T03:47:41;1.70;;;1.00;;
33836;SDS011;20140;49.356;8.812;2022-09-17T03:50:07;4.00;;;1.25;;
33836;SDS011;20140;49.356;8.812;2022-09-17T03:52:33;4.10;;;1.10;;
33836;SDS011;20140;49.356;8.812;2022-09-17T03:54:59;2.00;;;1.05;;
33836;SDS011;20140;49.356;8.812;2022-09-17T03:57:25;4.20;;;1.17;;
33836;SDS011;20140;49.356;8.812;2022-09-17T03:59:50;2.70;;;1.63;;
33836;SDS011;20140;49.356;8.812;2022-09-17T04:02:16;2.97;;;1.10;;
33836;SDS011;20140;49.356;8.812;2022-09-17T04:04:41;2.70;;;1.50;;
33836;SDS011;20140;49.356;8.812;2022-09-17T04:07:07;2.70;;;2.00;;
33836;SDS011;20140;49.356;8.812;2022-09-17T04:09:32;3.47;;;1.60;;
33836;SDS011;20140;49.356;8.812;2022-09-17T04:11:58;2.70;;;1.53;;
33836;SDS011;20140;49.356;8.812;2022-09-17T04:14:23;3.13;;;1.50;;
33836;SDS011;20140;49.356;8.812;2022-09-17T04:16:49;3.92;;;1.95;;
33836;SDS011;20140;49.356;8.812;2022-09-17T04:19:14;4.15;;;1.90;;
33836;SDS011;20140;49.356;8.812;2022-09-17T04:21:40;5.80;;;2.10;;
33836;SDS011;20140;49.356;8.812;2022-09-17T04:24:06;3.63;;;1.67;;
33836;SDS011;20140;49.356;8.812;2022-09-17T04:26:31;4.35;;;2.00;;
33836;SDS011;20140;49.356;8.812;2022-09-17T04:28:57;5.87;;;1.70;;
33836;SDS011;20140;49.356;8.812;2022-09-17T04:31:22;2.07;;;1.40;;
33836;SDS011;20140;49.356;8.812;2022-09-17T04:33:49;3.53;;;1.35;;
33836;SDS011;20140;49.356;8.812;2022-09-17T04:36:15;4.70;;;1.55;;
33836;SDS011;20140;49.356;8.812;2022-09-17T04:38:40;4.50;;;1.83;;
33836;SDS011;20140;49.356;8.812;2022-09-17T04:41:06;2.70;;;1.40;;
33836;SDS011;20140;49.356;8.812;2022-09-17T04:43:32;3.70;;;1.40;;
33836;SDS011;20140;49.356;8.812;2022-09-17T04:45:57;3.50;;;1.50;;
33836;SDS011;20140;49.356;8.812;2022-09-17T04:48:23;5.43;;;1.70;;
33836;SDS011;20140;49.356;8.812;2022-09-17T04:50:49;2.28;;;1.92;;
33836;SDS011;20140;49.356;8.812;2022-09-17T04:53:14;2.95;;;1.40;;
33836;SDS011;20140;49.356;8.812;2022-09-17T04:55:40;2.33;;;1.33;;
33836;SDS011;20140;49.356;8.812;2022-09-17T04:58:07;3.08;;;1.42;;
33836;SDS011;20140;49.356;8.812;2022-09-17T05:00:32;3.15;;;1.42;;
33836;SDS011;20140;49.356;8.812;2022-09-17T05:02:59;6.25;;;1.45;;
33836;SDS011;20140;49.356;8.812;2022-09-17T05:05:24;4.45;;;1.67;;
33836;SDS011;20140;49.356;8.812;2022-09-17T05:07:50;2.67;;;1.20;;
33836;SDS011;20140;49.356;8.812;2022-09-17T05:10:17;2.67;;;1.20;;
33836;SDS011;20140;49.356;8.812;2022-09-17T05:12:50;4.50;;;1.20;;
33836;SDS011;20140;49.356;8.812;2022-09-17T05:15:17;3.70;;;1.42;;
33836;SDS011;20140;49.356;8.812;2022-09-17T05:17:43;3.65;;;1.50;;
33836;SDS011;20140;49.356;8.812;2022-09-17T05:20:10;6.68;;;1.27;;
33836;SDS011;20140;49.356;8.812;2022-09-17T05:22:39;2.05;;;1.50;;
33836;SDS011;20140;49.356;8.812;2022-09-17T05:25:06;3.15;;;1.40;;
33836;SDS011;20140;49.356;8.812;2022-09-17T05:27:32;3.73;;;1.50;;
33836;SDS011;20140;49.356;8.812;2022-09-17T05:29:57;6.13;;;1.63;;
33836;SDS011;20140;49.356;8.812;2022-09-17T05:32:23;5.23;;;1.60;;
33836;SDS011;20140;49.356;8.812;2022-09-17T05:34:48;7.85;;;1.65;;
33836;SDS011;20140;49.356;8.812;2022-09-17T05:37:14;4.53;;;1.80;;
33836;SDS011;20140;49.356;8.812;2022-09-17T05:39:39;6.28;;;2.25;;
33836;SDS011;20140;49.356;8.812;2022-09-17T05:42:05;2.03;;;1.50;;
33836;SDS011;20140;49.356;8.812;2022-09-17T05:44:30;5.33;;;1.60;;
33836;SDS011;20140;49.356;8.812;2022-09-17T05:46:56;4.23;;;1.63;;
33836;SDS011;20140;49.356;8.812;2022-09-17T05:49:22;7.05;;;2.35;;
33836;SDS011;20140;49.356;8.812;2022-09-17T05:51:48;2.25;;;1.85;;
33836;SDS011;20140;49.356;8.812;2022-09-17T05:54:15;3.83;;;2.10;;
33836;SDS011;20140;49.356;8.812;2022-09-17T05:56:41;2.70;;;1.83;;
33836;SDS011;20140;49.356;8.812;2022-09-17T05:59:06;7.63;;;2.60;;
33836;SDS011;20140;49.356;8.812;2022-09-17T06:01:32;3.10;;;2.03;;
33836;SDS011;20140;49.356;8.812;2022-09-17T06:03:57;3.00;;;2.25;;
33836;SDS011;20140;49.356;8.812;2022-09-17T06:06:23;3.80;;;1.77;;
33836;SDS011;20140;49.356;8.812;2022-09-17T06:08:48;4.33;;;2.80;;
33836;SDS011;20140;49.356;8.812;2022-09-17T06:11:14;6.93;;;3.00;;
33836;SDS011;20140;49.356;8.812;2022-09-17T06:13:39;2.97;;;2.22;;
33836;SDS011;20140;49.356;8.812;2022-09-17T06:16:07;4.03;;;2.45;;
33836;SDS011;20140;49.356;8.812;2022-09-17T06:18:33;4.57;;;3.28;;
33836;SDS011;20140;49.356;8.812;2022-09-17T06:20:59;4.87;;;3.50;;
33836;SDS011;20140;49.356;8.812;2022-09-17T06:23:26;5.28;;;2.83;;
33836;SDS011;20140;49.356;8.812;2022-09-17T06:25:56;6.28;;;2.35;;
33836;SDS011;20140;49.356;8.812;2022-09-17T06:28:22;4.47;;;2.60;;
33836;SDS011;20140;49.356;8.812;2022-09-17T06:30:48;10.85;;;3.85;;
33836;SDS011;20140;49.356;8.812;2022-09-17T06:33:16;4.18;;;2.55;;
33836;SDS011;20140;49.356;8.812;2022-09-17T06:35:42;6.55;;;2.83;;
33836;SDS011;20140;49.356;8.812;2022-09-17T06:38:07;5.67;;;2.73;;
33836;SDS011;20140;49.356;8.812;2022-09-17T06:40:33;6.63;;;2.77;;
33836;SDS011;20140;49.356;8.812;2022-09-17T06:42:58;8.37;;;3.00;;
33836;SDS011;20140;49.356;8.812;2022-09-17T06:45:25;6.63;;;3.63;;
33836;SDS011;20140;49.356;8.812;2022-09-17T06:47:51;3.63;;;3.03;;
33836;SDS011;20140;49.356;8.812;2022-09-17T06:50:16;5.03;;;3.08;;
33836;SDS011;20140;49.356;8.812;2022-09-17T06:52:49;7.10;;;3.28;;
33836;SDS011;20140;49.356;8.812;2022-09-17T06:55:15;4.35;;;3.33;;
33836;SDS011;20140;49.356;8.812;2022-09-17T06:57:41;5.13;;;2.97;;
33836;SDS011;20140;49.356;8.812;2022-09-17T07:00:06;3.13;;;2.83;;
33836;SDS011;20140;49.356;8.812;2022-09-17T07:02:33;7.22;;;2.92;;
33836;SDS011;20140;49.356;8.812;2022-09-17T07:04:59;4.65;;;2.72;;
33836;SDS011;20140;49.356;8.812;2022-09-17T07:07:24;5.50;;;3.10;;
33836;SDS011;20140;49.356;8.812;2022-09-17T07:09:50;3.80;;;3.00;;
33836;SDS011;20140;49.356;8.812;2022-09-17T07:12:17;8.43;;;3.72;;
33836;SDS011;20140;49.356;8.812;2022-09-17T07:14:43;4.47;;;3.13;;
33836;SDS011;20140;49.356;8.812;2022-09-17T07:17:09;6.88;;;2.85;;
33836;SDS011;20140;49.356;8.812;2022-09-17T07:19:35;6.15;;;3.33;;
33836;SDS011;20140;49.356;8.812;2022-09-17T07:22:00;4.97;;;3.10;;
33836;SDS011;20140;49.356;8.812;2022-09-17T07:24:26;5.68;;;2.97;;
33836;SDS011;20140;49.356;8.812;2022-09-17T07:26:51;6.60;;;3.20;;
33836;SDS011;20140;49.356;8.812;2022-09-17T07:29:17;5.90;;;3.00;;
33836;SDS011;20140;49.356;8.812;2022-09-17T07:31:42;3.87;;;3.17;;
33836;SDS011;20140;49.356;8.812;2022-09-17T07:34:09;10.15;;;3.20;;
33836;SDS011;20140;49.356;8.812;2022-09-17T07:36:34;6.22;;;2.47;;
33836;SDS011;20140;49.356;8.812;2022-09-17T07:39:00;3.83;;;3.10;;
33836;SDS011;20140;49.356;8.812;2022-09-17T07:41:25;9.35;;;4.15;;
33836;SDS011;20140;49.356;8.812;2022-09-17T07:43:51;4.18;;;3.08;;
33836;SDS011;20140;49.356;8.812;2022-09-17T07:46:19;8.73;;;4.10;;
33836;SDS011;20140;49.356;8.812;2022-09-17T07:48:45;5.72;;;3.17;;
33836;SDS011;20140;49.356;8.812;2022-09-17T07:51:16;8.65;;;3.05;;
33836;SDS011;20140;49.356;8.812;2022-09-17T07:53:46;5.40;;;3.60;;
33836;SDS011;20140;49.356;8.812;2022-09-17T07:56:15;5.07;;;2.85;;
33836;SDS011;20140;49.356;8.812;2022-09-17T07:58:41;6.17;;;3.33;;
33836;SDS011;20140;49.356;8.812;2022-09-17T08:01:08;7.65;;;3.08;;
33836;SDS011;20140;49.356;8.812;2022-09-17T08:03:35;5.32;;;3.22;;
33836;SDS011;20140;49.356;8.812;2022-09-17T08:06:04;4.35;;;2.85;;
33836;SDS011;20140;49.356;8.812;2022-09-17T08:08:35;6.15;;;3.58;;
33836;SDS011;20140;49.356;8.812;2022-09-17T08:11:02;5.78;;;2.97;;
33836;SDS011;20140;49.356;8.812;2022-09-17T08:13:29;16.55;;;3.60;;
33836;SDS011;20140;49.356;8.812;2022-09-17T08:16:02;3.03;;;2.67;;
33836;SDS011;20140;49.356;8.812;2022-09-17T08:18:29;8.48;;;3.65;;
33836;SDS011;20140;49.356;8.812;2022-09-17T08:20:55;4.97;;;2.55;;
33836;SDS011;20140;49.356;8.812;2022-09-17T08:23:22;5.47;;;3.10;;
33836;SDS011;20140;49.356;8.812;2022-09-17T08:25:52;7.45;;;3.78;;
33836;SDS011;20140;49.356;8.812;2022-09-17T08:28:18;7.73;;;2.83;;
33836;SDS011;20140;49.356;8.812;2022-09-17T08:30:44;3.57;;;3.10;;
33836;SDS011;20140;49.356;8.812;2022-09-17T08:33:12;5.82;;;3.00;;
33836;SDS011;20140;49.356;8.812;2022-09-17T08:35:37;8.60;;;3.40;;
33836;SDS011;20140;49.356;8.812;2022-09-17T08:38:03;7.93;;;2.83;;
33836;SDS011;20140;49.356;8.812;2022-09-17T08:40:28;7.25;;;3.20;;
33836;SDS011;20140;49.356;8.812;2022-09-17T08:42:55;6.63;;;2.67;;
33836;SDS011;20140;49.356;8.812;2022-09-17T08:45:26;5.30;;;2.88;;
33836;SDS011;20140;49.356;8.812;2022-09-17T08:48:00;4.90;;;3.35;;
33836;SDS011;20140;49.356;8.812;2022-09-17T08:50:33;7.00;;;3.08;;
33836;SDS011;20140;49.356;8.812;2022-09-17T08:53:06;4.85;;;3.03;;
33836;SDS011;20140;49.356;8.812;2022-09-17T09:04:15;7.00;;;2.37;;
33836;SDS011;20140;49.356;8.812;2022-09-17T09:07:12;5.53;;;2.43;;
33836;SDS011;20140;49.356;8.812;2022-09-17T09:12:37;4.97;;;2.70;;
33836;SDS011;20140;49.356;8.812;2022-09-17T09:17:41;6.78;;;2.38;;
33836;SDS011;20140;49.356;8.812;2022-09-17T09:20:13;5.75;;;2.58;;
33836;SDS011;20140;49.356;8.812;2022-09-17T09:22:50;7.10;;;1.90;;
33836;SDS011;20140;49.356;8.812;2022-09-17T09:25:18;7.03;;;2.10;;
33836;SDS011;20140;49.356;8.812;2022-09-17T09:30:27;4.40;;;2.10;;
33836;SDS011;20140;49.356;8.812;2022-09-17T09:33:11;9.65;;;2.75;;
33836;SDS011;20140;49.356;8.812;2022-09-17T09:35:40;6.13;;;2.38;;
33836;SDS011;20140;49.356;8.812;2022-09-17T09:40:40;7.17;;;3.17;;
33836;SDS011;20140;49.356;8.812;2022-09-17T09:43:16;8.90;;;2.97;;
33836;SDS011;20140;49.356;8.812;2022-09-17T09:48:45;8.90;;;2.83;;
33836;SDS011;20140;49.356;8.812;2022-09-17T09:51:37;7.78;;;3.05;;
33836;SDS011;20140;49.356;8.812;2022-09-17T09:54:22;4.75;;;2.00;;
33836;SDS011;20140;49.356;8.812;2022-09-17T09:57:14;7.50;;;2.45;;
33836;SDS011;20140;49.356;8.812;2022-09-17T09:59:42;8.30;;;3.00;;
33836;SDS011;20140;49.356;8.812;2022-09-17T10:02:08;7.57;;;2.03;;
33836;SDS011;20140;49.356;8.812;2022-09-17T10:04:34;8.07;;;2.70;;
33836;SDS011;20140;49.356;8.812;2022-09-17T10:09:27;4.88;;;1.40;;
33836;SDS011;20140;49.356;8.812;2022-09-17T10:14:35;3.30;;;1.45;;
33836;SDS011;20140;49.356;8.812;2022-09-17T10:19:36;4.50;;;1.88;;
33836;SDS011;20140;49.356;8.812;2022-09-17T10:25:11;5.50;;;1.60;;
33836;SDS011;20140;49.356;8.812;2022-09-17T10:27:48;3.17;;;1.33;;
33836;SDS011;20140;49.356;8.812;2022-09-17T10:30:15;7.63;;;1.55;;
33836;SDS011;20140;49.356;8.812;2022-09-17T10:32:42;4.72;;;1.67;;
33836;SDS011;20140;49.356;8.812;2022-09-17T10:37:41;4.78;;;1.90;;
33836;SDS011;20140;49.356;8.812;2022-09-17T10:40:32;6.53;;;2.03;;
33836;SDS011;20140;49.356;8.812;2022-09-17T10:45:42;7.03;;;2.08;;
33836;SDS011;20140;49.356;8.812;2022-09-17T10:48:17;7.50;;;2.63;;
33836;SDS011;20140;49.356;8.812;2022-09-17T10:50:51;6.68;;;2.17;;
33836;SDS011;20140;49.356;8.812;2022-09-17T10:53:19;5.15;;;1.92;;
33836;SDS011;20140;49.356;8.812;2022-09-17T11:06:49;5.47;;;2.67;;
33836;SDS011;20140;49.356;8.812;2022-09-17T11:15:17;4.65;;;1.55;;
33836;SDS011;20140;49.356;8.812;2022-09-17T11:35:02;5.25;;;1.63;;
33836;SDS011;20140;49.356;8.812;2022-09-17T11:40:43;7.28;;;1.83;;
33836;SDS011;20140;49.356;8.812;2022-09-17T11:43:16;4.23;;;1.50;;
33836;SDS011;20140;49.356;8.812;2022-09-17T11:49:00;3.88;;;1.38;;
33836;SDS011;20140;49.356;8.812;2022-09-17T11:56:48;12.52;;;2.08;;
33836;SDS011;20140;49.356;8.812;2022-09-17T12:02:20;3.53;;;1.17;;
33836;SDS011;20140;49.356;8.812;2022-09-17T12:07:51;5.28;;;1.70;;
33836;SDS011;20140;49.356;8.812;2022-09-17T12:16:17;5.85;;;1.40;;
33836;SDS011;20140;49.356;8.812;2022-09-17T12:21:14;4.70;;;1.33;;
33836;SDS011;20140;49.356;8.812;2022-09-17T12:23:48;4.00;;;1.27;;
33836;SDS011;20140;49.356;8.812;2022-09-17T12:31:23;4.95;;;1.60;;
33836;SDS011;20140;49.356;8.812;2022-09-17T12:34:27;2.75;;;1.38;;
33836;SDS011;20140;49.356;8.812;2022-09-17T12:36:59;4.15;;;1.40;;
33836;SDS011;20140;49.356;8.812;2022-09-17T12:42:45;2.47;;;0.70;;
33836;SDS011;20140;49.356;8.812;2022-09-17T12:45:40;2.00;;;0.68;;
33836;SDS011;20140;49.356;8.812;2022-09-17T12:53:53;4.77;;;0.80;;
33836;SDS011;20140;49.356;8.812;2022-09-17T12:59:31;3.60;;;1.60;;
33836;SDS011;20140;49.356;8.812;2022-09-17T13:02:23;2.27;;;0.90;;
33836;SDS011;20140;49.356;8.812;2022-09-17T13:10:46;2.42;;;0.70;;
33836;SDS011;20140;49.356;8.812;2022-09-17T13:13:29;1.60;;;0.68;;
33836;SDS011;20140;49.356;8.812;2022-09-17T13:16:07;2.37;;;0.90;;
33836;SDS011;20140;49.356;8.812;2022-09-17T13:23:45;2.85;;;0.55;;
33836;SDS011;20140;49.356;8.812;2022-09-17T13:26:13;2.90;;;0.70;;
33836;SDS011;20140;49.356;8.812;2022-09-17T13:28:47;3.50;;;0.60;;
33836;SDS011;20140;49.356;8.812;2022-09-17T13:31:21;1.50;;;0.50;;
33836;SDS011;20140;49.356;8.812;2022-09-17T13:34:00;6.15;;;0.73;;
33836;SDS011;20140;49.356;8.812;2022-09-17T13:39:08;1.95;;;0.70;;
33836;SDS011;20140;49.356;8.812;2022-09-17T13:42:01;3.42;;;0.80;;
33836;SDS011;20140;49.356;8.812;2022-09-17T13:45:03;3.00;;;0.70;;
33836;SDS011;20140;49.356;8.812;2022-09-17T13:47:33;1.48;;;0.50;;
33836;SDS011;20140;49.356;8.812;2022-09-17T13:50:11;3.35;;;0.75;;
33836;SDS011;20140;49.356;8.812;2022-09-17T13:52:57;2.75;;;0.68;;
33836;SDS011;20140;49.356;8.812;2022-09-17T13:55:33;1.23;;;0.50;;
33836;SDS011;20140;49.356;8.812;2022-09-17T13:58:24;3.85;;;0.35;;
33836;SDS011;20140;49.356;8.812;2022-09-17T14:05:55;4.22;;;1.08;;
33836;SDS011;20140;49.356;8.812;2022-09-17T14:08:30;2.77;;;0.80;;
33836;SDS011;20140;49.356;8.812;2022-09-17T14:16:44;1.85;;;0.88;;
33836;SDS011;20140;49.356;8.812;2022-09-17T14:21:39;0.90;;;0.50;;
33836;SDS011;20140;49.356;8.812;2022-09-17T14:24:21;1.50;;;0.77;;
33836;SDS011;20140;49.356;8.812;2022-09-17T14:27:26;1.85;;;0.65;;
33836;SDS011;20140;49.356;8.812;2022-09-17T14:29:53;2.60;;;1.00;;
33836;SDS011;20140;49.356;8.812;2022-09-17T14:32:30;2.78;;;0.50;;
33836;SDS011;20140;49.356;8.812;2022-09-17T14:35:28;3.35;;;0.50;;
33836;SDS011;20140;49.356;8.812;2022-09-17T14:37:59;0.80;;;0.60;;
33836;SDS011;20140;49.356;8.812;2022-09-17T14:40:44;1.45;;;0.68;;
33836;SDS011;20140;49.356;8.812;2022-09-17T14:43:17;1.25;;;0.40;;
33836;SDS011;20140;49.356;8.812;2022-09-17T14:45:49;2.40;;;0.55;;
33836;SDS011;20140;49.356;8.812;2022-09-17T14:50:51;1.50;;;0.50;;
33836;SDS011;20140;49.356;8.812;2022-09-17T14:53:17;3.20;;;0.65;;
33836;SDS011;20140;49.356;8.812;2022-09-17T14:55:48;1.30;;;0.55;;
33836;SDS011;20140;49.356;8.812;2022-09-17T14:58:29;1.55;;;0.32;;
33836;SDS011;20140;49.356;8.812;2022-09-17T15:01:00;2.53;;;0.80;;
33836;SDS011;20140;49.356;8.812;2022-09-17T15:03:26;2.20;;;0.47;;
33836;SDS011;20140;49.356;8.812;2022-09-17T15:05:52;4.63;;;0.60;;
33836;SDS011;20140;49.356;8.812;2022-09-17T15:08:22;4.50;;;0.90;;
33836;SDS011;20140;49.356;8.812;2022-09-17T15:10:57;0.30;;;0.20;;
33836;SDS011;20140;49.356;8.812;2022-09-17T15:13:31;1.57;;;0.47;;
33836;SDS011;20140;49.356;8.812;2022-09-17T15:16:03;3.33;;;0.40;;
33836;SDS011;20140;49.356;8.812;2022-09-17T15:18:46;0.60;;;0.30;;
33836;SDS011;20140;49.356;8.812;2022-09-17T15:21:29;1.58;;;0.52;;
33836;SDS011;20140;49.356;8.812;2022-09-17T15:24:05;1.27;;;0.20;;
33836;SDS011;20140;49.356;8.812;2022-09-17T15:26:37;0.93;;;0.60;;
33836;SDS011;20140;49.356;8.812;2022-09-17T15:29:05;2.08;;;1.02;;
33836;SDS011;20140;49.356;8.812;2022-09-17T15:31:31;4.37;;;1.57;;
33836;SDS011;20140;49.356;8.812;2022-09-17T15:33:58;3.40;;;1.55;;
33836;SDS011;20140;49.356;8.812;2022-09-17T15:36:25;4.18;;;2.22;;
33836;SDS011;20140;49.356;8.812;2022-09-17T15:38:51;2.17;;;0.73;;
33836;SDS011;20140;49.356;8.812;2022-09-17T15:41:33;2.08;;;1.13;;
33836;SDS011;20140;49.356;8.812;2022-09-17T15:44:07;1.75;;;0.85;;
33836;SDS011;20140;49.356;8.812;2022-09-17T15:46:39;0.63;;;0.45;;
33836;SDS011;20140;49.356;8.812;2022-09-17T15:49:25;1.10;;;0.73;;
33836;SDS011;20140;49.356;8.812;2022-09-17T15:51:51;3.05;;;0.70;;
33836;SDS011;20140;49.356;8.812;2022-09-17T15:54:27;1.70;;;0.60;;
33836;SDS011;20140;49.356;8.812;2022-09-17T15:56:55;0.80;;;0.50;;
33836;SDS011;20140;49.356;8.812;2022-09-17T15:59:27;1.38;;;0.50;;
33836;SDS011;20140;49.356;8.812;2022-09-17T16:01:55;1.43;;;0.53;;
33836;SDS011;20140;49.356;8.812;2022-09-17T16:04:24;0.90;;;0.30;;
33836;SDS011;20140;49.356;8.812;2022-09-17T16:12:18;2.85;;;0.80;;
33836;SDS011;20140;49.356;8.812;2022-09-17T16:14:49;0.88;;;0.40;;
33836;SDS011;20140;49.356;8.812;2022-09-17T16:19:53;2.17;;;0.60;;
33836;SDS011;20140;49.356;8.812;2022-09-17T16:22:20;1.90;;;0.40;;
33836;SDS011;20140;49.356;8.812;2022-09-17T16:24:46;2.03;;;0.60;;
33836;SDS011;20140;49.356;8.812;2022-09-17T16:27:15;2.03;;;0.60;;
33836;SDS011;20140;49.356;8.812;2022-09-17T16:29:44;1.25;;;0.60;;
33836;SDS011;20140;49.356;8.812;2022-09-17T16:32:10;1.48;;;0.20;;
33836;SDS011;20140;49.356;8.812;2022-09-17T16:34:36;1.20;;;0.43;;
33836;SDS011;20140;49.356;8.812;2022-09-17T16:37:01;1.00;;;0.50;;
33836;SDS011;20140;49.356;8.812;2022-09-17T16:39:27;1.20;;;0.30;;
33836;SDS011;20140;49.356;8.812;2022-09-17T16:41:53;1.30;;;0.57;;
33836;SDS011;20140;49.356;8.812;2022-09-17T16:44:18;0.80;;;0.32;;
33836;SDS011;20140;49.356;8.812;2022-09-17T16:46:44;2.97;;;0.30;;
33836;SDS011;20140;49.356;8.812;2022-09-17T16:49:09;0.63;;;0.40;;
33836;SDS011;20140;49.356;8.812;2022-09-17T16:51:35;3.30;;;0.30;;
33836;SDS011;20140;49.356;8.812;2022-09-17T16:54:00;0.97;;;0.57;;
33836;SDS011;20140;49.356;8.812;2022-09-17T16:56:26;0.60;;;0.37;;
33836;SDS011;20140;49.356;8.812;2022-09-17T16:58:55;2.93;;;1.00;;
33836;SDS011;20140;49.356;8.812;2022-09-17T17:01:21;1.58;;;1.17;;
33836;SDS011;20140;49.356;8.812;2022-09-17T17:03:49;1.40;;;0.40;;
33836;SDS011;20140;49.356;8.812;2022-09-17T17:06:19;1.58;;;0.90;;
33836;SDS011;20140;49.356;8.812;2022-09-17T17:08:46;0.73;;;0.60;;
33836;SDS011;20140;49.356;8.812;2022-09-17T17:11:12;1.20;;;1.10;;
33836;SDS011;20140;49.356;8.812;2022-09-17T17:13:38;1.33;;;0.90;;
33836;SDS011;20140;49.356;8.812;2022-09-17T17:16:05;2.72;;;0.90;;
33836;SDS011;20140;49.356;8.812;2022-09-17T17:18:32;3.80;;;2.92;;
33836;SDS011;20140;49.356;8.812;2022-09-17T17:21:07;3.70;;;0.55;;
33836;SDS011;20140;49.356;8.812;2022-09-17T17:23:34;1.13;;;0.98;;
33836;SDS011;20140;49.356;8.812;2022-09-17T17:26:00;0.70;;;0.40;;
33836;SDS011;20140;49.356;8.812;2022-09-17T17:28:26;1.60;;;0.60;;
33836;SDS011;20140;49.356;8.812;2022-09-17T17:30:55;1.73;;;0.60;;
33836;SDS011;20140;49.356;8.812;2022-09-17T17:33:21;2.73;;;1.03;;
33836;SDS011;20140;49.356;8.812;2022-09-17T17:35:46;1.63;;;0.70;;
33836;SDS011;20140;49.356;8.812;2022-09-17T17:38:12;1.02;;;0.40;;
33836;SDS011;20140;49.356;8.812;2022-09-17T17:40:37;1.08;;;0.50;;
33836;SDS011;20140;49.356;8.812;2022-09-17T17:43:03;2.70;;;0.87;;
33836;SDS011;20140;49.356;8.812;2022-09-17T17:45:28;1.73;;;0.60;;
33836;SDS011;20140;49.356;8.812;2022-09-17T17:47:54;3.08;;;0.68;;
33836;SDS011;20140;49.356;8.812;2022-09-17T17:50:19;1.27;;;0.50;;
33836;SDS011;20140;49.356;8.812;2022-09-17T17:52:45;1.80;;;0.70;;
33836;SDS011;20140;49.356;8.812;2022-09-17T17:55:13;1.58;;;0.50;;
33836;SDS011;20140;49.356;8.812;2022-09-17T17:57:39;1.90;;;0.70;;
33836;SDS011;20140;49.356;8.812;2022-09-17T18:00:05;0.70;;;0.30;;
33836;SDS011;20140;49.356;8.812;2022-09-17T18:02:32;2.15;;;0.80;;
33836;SDS011;20140;49.356;8.812;2022-09-17T18:04:58;0.50;;;0.40;;
33836;SDS011;20140;49.356;8.812;2022-09-17T18:07:23;2.27;;;0.60;;
33836;SDS011;20140;49.356;8.812;2022-09-17T18:09:49;0.40;;;0.30;;
33836;SDS011;20140;49.356;8.812;2022-09-17T18:12:14;1.27;;;0.40;;
33836;SDS011;20140;49.356;8.812;2022-09-17T18:14:40;0.90;;;0.40;;